Huvudsida
METAR-TAF:

METAR-TAF

Flygplatser :

Vamdrup

Kolding, Danmark

latitud: 55-26N, longitud: 009-20E, höjd: 44 m

Aktuellt väderrapport

Denna rapport gjordes för 44 minuter sedan, klockan 00:20 UTC
Vind 7 kt från syd/sydost
Temperatur 6°C
Fuktighet 100%
Tryck 1002 hPa

METAR: EKVD 190020Z AUTO 16007KT //// ///////// 06/06 Q1002

Tid: 02:04 (01:04 UTC)

Väderprognos

Denna rapport gjordes för 13 timmar och 11 minuter sedan, klockan 11:53 UTC
Prognos gäller från 18 kl. 12 UTC till 18 kl. 17 UTC
Vind 5 kt från ost
Sikt: 1200 m
Mulet på en höjd av 200 ft
fuktdis
Temporärt
från 18 kl. 12 UTC till 18 kl. 17 UTC
Sikt: 3000 m
Brutna moln på en höjd av 500 ft
duggregn

TAF: EKVD 181153Z 1812/1817 09005KT 1200 BR OVC002 TEMPO 1812/1817 3000 DZ BKN005

Aktuella väderrapporter och prognoser från 4000 flygplatser (METAR- och TAF-rapporter).

De tillgängliga stationerna syns som gula och röda prickar på kartan.

För musen över prickarna för att se namnen på stationerna.

Klicka sedan för att få väderrapporter och prognoser.

För att ändra kartan: Klicka på de gröna knapparna med ett svart kors på för att zooma in; den gröna knappen med ett streck på för att zooma ut; eller på de gröna pilarna för angränsande kartor.


METAR-TAF: